createdAt,value
2022-11-29T00:01:34.870Z,85.83
2022-11-29T00:04:11.963Z,85.93
2022-11-29T00:06:47.844Z,85.77
2022-11-29T00:09:23.821Z,85.83
2022-11-29T00:12:15.236Z,85.61
2022-11-29T00:14:51.267Z,85.62
2022-11-29T00:17:27.227Z,85.73
2022-11-29T00:20:03.516Z,85.89
2022-11-29T00:22:39.543Z,86.07
2022-11-29T00:25:16.121Z,86.04
2022-11-29T00:27:52.512Z,86.27
2022-11-29T00:30:28.894Z,86.05
2022-11-29T00:33:04.964Z,85.89
2022-11-29T00:35:40.838Z,86.00
2022-11-29T00:38:16.931Z,86.13
2022-11-29T00:40:57.541Z,86.25
2022-11-29T00:43:33.649Z,86.19
2022-11-29T00:46:10.987Z,85.87
2022-11-29T00:48:47.032Z,85.67
2022-11-29T00:51:23.051Z,85.42
2022-11-29T00:53:59.112Z,85.17
2022-11-29T00:56:35.078Z,84.91
2022-11-29T00:59:11.256Z,84.96
2022-11-29T01:01:47.214Z,84.94
2022-11-29T01:04:23.657Z,85.02
2022-11-29T01:06:59.920Z,85.07
2022-11-29T01:09:35.875Z,85.14
2022-11-29T01:12:12.234Z,85.17
2022-11-29T01:14:48.465Z,85.09
2022-11-29T01:17:24.357Z,85.12
2022-11-29T01:20:00.237Z,85.13
2022-11-29T01:22:36.190Z,85.40
2022-11-29T01:25:19.923Z,85.57
2022-11-29T01:27:56.776Z,85.60
2022-11-29T01:30:32.807Z,85.65
2022-11-29T01:33:08.614Z,85.83
2022-11-29T01:35:50.272Z,85.72
2022-11-29T01:38:26.629Z,85.52
2022-11-29T01:41:10.171Z,85.68
2022-11-29T01:44:06.228Z,85.84
2022-11-29T01:46:45.305Z,85.93
2022-11-29T01:49:27.384Z,85.62
2022-11-29T01:52:08.466Z,85.47
2022-11-29T01:54:49.454Z,85.60
2022-11-29T01:57:26.337Z,85.72
2022-11-29T02:00:11.609Z,85.84
2022-11-29T02:02:56.814Z,86.16
2022-11-29T02:05:33.945Z,86.47
2022-11-29T02:08:14.529Z,86.68
2022-11-29T02:11:16.222Z,86.92
2022-11-29T02:14:15.645Z,87.13
2022-11-29T02:17:04.580Z,87.19
2022-11-29T02:20:34.188Z,87.14
2022-11-29T02:23:36.215Z,87.46
2022-11-29T02:26:37.589Z,87.54
2022-11-29T02:30:03.472Z,87.50
2022-11-29T02:33:48.386Z,87.39
2022-11-29T02:37:13.911Z,87.16
2022-11-29T02:40:23.921Z,86.72
2022-11-29T02:43:30.857Z,86.19
2022-11-29T02:46:43.162Z,86.09
2022-11-29T02:49:38.351Z,85.95
2022-11-29T02:52:23.635Z,85.93
2022-11-29T02:55:10.558Z,86.08
2022-11-29T02:58:00.378Z,86.27
2022-11-29T03:00:42.603Z,86.38
2022-11-29T03:03:28.818Z,86.45
2022-11-29T03:06:21.598Z,86.48
2022-11-29T03:09:07.400Z,86.72
2022-11-29T03:11:58.112Z,86.82
2022-11-29T03:14:50.730Z,86.73
2022-11-29T03:17:49.228Z,86.69
2022-11-29T03:20:39.623Z,86.72
2022-11-29T03:23:34.458Z,87.00
2022-11-29T03:26:19.939Z,87.35
2022-11-29T03:29:07.366Z,87.72
2022-11-29T03:31:53.165Z,88.06
2022-11-29T03:34:56.978Z,88.37
2022-11-29T03:37:49.540Z,88.60
2022-11-29T03:40:34.432Z,88.76
2022-11-29T03:43:19.260Z,88.96
2022-11-29T03:46:03.502Z,89.14
2022-11-29T03:48:45.966Z,89.25
2022-11-29T03:51:30.484Z,89.33
2022-11-29T03:54:17.330Z,89.41
2022-11-29T03:56:55.816Z,89.44
2022-11-29T03:59:55.930Z,89.43
2022-11-29T04:03:46.308Z,89.41
2022-11-29T04:06:47.333Z,89.38
2022-11-29T04:10:15.914Z,89.40
2022-11-29T04:13:53.322Z,89.40
2022-11-29T04:17:24.668Z,89.30
2022-11-29T04:20:48.763Z,89.29
2022-11-29T04:24:04.793Z,89.19
2022-11-29T04:27:41.544Z,89.18
2022-11-29T04:30:24.666Z,89.17
2022-11-29T04:34:15.324Z,89.12
2022-11-29T04:37:23.715Z,89.09
2022-11-29T04:40:34.883Z,88.97
2022-11-29T04:43:46.444Z,88.98
2022-11-29T04:46:52.133Z,89.05
2022-11-29T04:50:09.246Z,89.03
2022-11-29T04:53:30.571Z,89.02
2022-11-29T04:56:22.565Z,89.09
2022-11-29T04:59:04.371Z,89.09
2022-11-29T05:02:02.263Z,89.13
2022-11-29T05:04:57.414Z,89.23
2022-11-29T05:07:45.820Z,89.22
2022-11-29T05:10:36.241Z,89.29
2022-11-29T05:13:32.242Z,89.38
2022-11-29T05:16:46.089Z,89.42
2022-11-29T05:20:02.485Z,89.40
2022-11-29T05:22:54.895Z,89.40
2022-11-29T05:25:52.080Z,89.40
2022-11-29T05:28:42.428Z,89.49
2022-11-29T05:31:50.104Z,89.53
2022-11-29T05:34:56.589Z,89.40
2022-11-29T05:37:49.566Z,89.43
2022-11-29T05:41:04.031Z,89.38
2022-11-29T05:44:00.565Z,89.26
2022-11-29T05:46:51.068Z,89.27
2022-11-29T05:49:45.629Z,89.30
2022-11-29T05:52:48.301Z,89.30
2022-11-29T05:55:45.936Z,89.28
2022-11-29T05:58:39.606Z,89.13
2022-11-29T06:01:25.982Z,88.98
2022-11-29T06:04:17.043Z,88.90
2022-11-29T06:07:03.902Z,88.90
2022-11-29T06:09:50.193Z,88.98
2022-11-29T06:12:30.995Z,89.02
2022-11-29T06:15:43.390Z,88.99
2022-11-29T06:19:01.962Z,88.88
2022-11-29T06:21:47.493Z,88.82
2022-11-29T06:24:58.560Z,88.79
2022-11-29T06:28:07.795Z,88.79
2022-11-29T06:31:01.173Z,88.77
2022-11-29T06:33:51.371Z,88.81
2022-11-29T06:36:38.671Z,88.80
2022-11-29T06:39:17.670Z,88.86
2022-11-29T06:41:53.573Z,88.93
2022-11-29T06:44:31.728Z,88.99
2022-11-29T06:47:19.097Z,89.06
2022-11-29T06:50:02.284Z,89.14
2022-11-29T06:52:49.991Z,89.10
2022-11-29T06:55:39.183Z,89.18
2022-11-29T06:58:36.955Z,89.25
2022-11-29T07:01:29.583Z,89.27
2022-11-29T07:04:52.703Z,89.22
2022-11-29T07:07:31.419Z,89.23
2022-11-29T07:10:15.056Z,89.27
2022-11-29T07:12:54.465Z,89.32
2022-11-29T07:15:32.994Z,89.35
2022-11-29T07:18:25.661Z,89.33
2022-11-29T07:21:18.964Z,89.33
2022-11-29T07:24:08.788Z,89.35
2022-11-29T07:26:59.426Z,89.40
2022-11-29T07:29:51.590Z,89.30
2022-11-29T07:32:48.830Z,89.25
2022-11-29T07:35:37.149Z,89.08
2022-11-29T07:38:30.201Z,89.01
2022-11-29T07:41:17.868Z,88.76
2022-11-29T07:44:07.657Z,88.56
2022-11-29T07:46:43.840Z,88.46
2022-11-29T07:49:20.099Z,88.41
2022-11-29T07:51:58.266Z,88.31
2022-11-29T07:54:34.446Z,88.36
2022-11-29T07:57:10.379Z,88.31
2022-11-29T07:59:46.324Z,88.41
2022-11-29T08:02:32.875Z,88.18
2022-11-29T08:05:11.672Z,87.92
2022-11-29T08:07:48.485Z,87.96
2022-11-29T08:10:24.545Z,88.06
2022-11-29T08:13:01.266Z,87.98
2022-11-29T08:15:37.224Z,87.91
2022-11-29T08:18:13.398Z,87.94
2022-11-29T08:20:49.365Z,88.16
2022-11-29T08:23:25.193Z,88.19
2022-11-29T08:26:06.768Z,88.29
2022-11-29T08:28:43.096Z,88.32
2022-11-29T08:31:19.509Z,88.40
2022-11-29T08:33:55.496Z,88.40
2022-11-29T08:36:31.532Z,88.39
2022-11-29T08:39:09.725Z,88.32
2022-11-29T08:41:45.939Z,88.40
2022-11-29T08:44:22.154Z,88.41
2022-11-29T08:47:15.925Z,88.11
2022-11-29T08:50:04.053Z,87.83
2022-11-29T08:53:01.810Z,87.91
2022-11-29T08:55:43.083Z,88.02
2022-11-29T08:58:21.469Z,87.88
2022-11-29T09:00:57.810Z,87.77
2022-11-29T09:03:51.162Z,87.85
2022-11-29T09:06:27.631Z,87.86
2022-11-29T09:09:04.324Z,87.82
2022-11-29T09:11:40.629Z,87.76
2022-11-29T09:14:20.003Z,87.47
2022-11-29T09:16:56.074Z,87.41
2022-11-29T09:19:32.203Z,87.22
2022-11-29T09:22:08.139Z,87.28
2022-11-29T09:24:44.424Z,87.19
2022-11-29T09:27:20.564Z,87.04
2022-11-29T09:29:56.520Z,87.27
2022-11-29T09:32:32.588Z,87.28
2022-11-29T09:35:10.122Z,87.19
2022-11-29T09:37:48.702Z,87.00
2022-11-29T09:40:33.907Z,87.07
2022-11-29T09:43:24.144Z,87.32
2022-11-29T09:46:18.330Z,87.20
2022-11-29T09:49:22.258Z,87.04
2022-11-29T09:52:13.080Z,86.94
2022-11-29T09:55:04.569Z,86.83
2022-11-29T09:57:44.115Z,86.84
2022-11-29T10:00:24.172Z,86.96
2022-11-29T10:03:11.106Z,87.14
2022-11-29T10:05:54.757Z,87.12
2022-11-29T10:08:38.226Z,87.00
2022-11-29T10:11:27.965Z,87.02
2022-11-29T10:14:13.380Z,86.60
2022-11-29T10:16:57.589Z,86.66
2022-11-29T10:19:39.415Z,86.82
2022-11-29T10:22:26.968Z,86.94
2022-11-29T10:25:07.345Z,87.02
2022-11-29T10:27:44.582Z,86.54
2022-11-29T10:30:22.290Z,86.57
2022-11-29T10:33:02.887Z,86.73
2022-11-29T10:35:38.931Z,86.93
2022-11-29T10:38:33.492Z,87.01
2022-11-29T10:41:21.338Z,87.06
2022-11-29T10:44:00.967Z,86.81
2022-11-29T10:46:39.699Z,86.73
2022-11-29T10:49:24.972Z,86.73
2022-11-29T10:52:01.542Z,86.70
2022-11-29T10:54:45.222Z,86.54
2022-11-29T10:57:25.337Z,86.74
2022-11-29T11:00:12.818Z,86.94
2022-11-29T11:02:48.849Z,86.92
2022-11-29T11:05:30.815Z,87.11
2022-11-29T11:08:07.239Z,87.10
2022-11-29T11:10:45.949Z,87.17
2022-11-29T11:13:31.116Z,87.13
2022-11-29T11:16:20.739Z,87.17
2022-11-29T11:18:57.276Z,87.37
2022-11-29T11:21:33.134Z,87.29
2022-11-29T11:24:24.839Z,87.31
2022-11-29T11:27:01.506Z,87.18
2022-11-29T11:29:44.813Z,87.35
2022-11-29T11:32:23.421Z,87.52
2022-11-29T11:35:02.611Z,87.32
2022-11-29T11:37:38.446Z,87.10
2022-11-29T11:40:31.852Z,87.03
2022-11-29T11:43:14.624Z,87.20
2022-11-29T11:45:56.833Z,87.39
2022-11-29T11:48:33.906Z,87.40
2022-11-29T11:51:23.875Z,87.28
2022-11-29T11:54:01.816Z,87.04
2022-11-29T11:56:40.553Z,87.26
2022-11-29T11:59:26.434Z,87.26
2022-11-29T12:02:02.473Z,87.32
2022-11-29T12:04:41.274Z,87.45
2022-11-29T12:07:51.908Z,87.51
2022-11-29T12:10:29.689Z,87.63
2022-11-29T12:13:07.499Z,87.70
2022-11-29T12:15:49.821Z,87.51
2022-11-29T12:18:38.022Z,87.61
2022-11-29T12:21:19.528Z,87.75
2022-11-29T12:24:02.408Z,87.84
2022-11-29T12:26:59.536Z,87.75
2022-11-29T12:29:37.398Z,87.72
2022-11-29T12:32:42.098Z,87.79
2022-11-29T12:35:50.988Z,88.14
2022-11-29T12:38:52.541Z,88.41
2022-11-29T12:41:53.922Z,88.49
2022-11-29T12:44:44.518Z,88.70
2022-11-29T12:47:43.703Z,88.72
2022-11-29T12:50:40.372Z,88.83
2022-11-29T12:53:42.215Z,88.92
2022-11-29T12:56:29.987Z,88.90
2022-11-29T12:59:31.064Z,88.88
2022-11-29T13:02:33.462Z,88.85
2022-11-29T13:05:23.018Z,88.98
2022-11-29T13:08:23.643Z,89.17
2022-11-29T13:11:15.397Z,89.25
2022-11-29T13:14:13.797Z,89.30
2022-11-29T13:17:03.726Z,89.30
2022-11-29T13:19:51.212Z,89.33
2022-11-29T13:22:46.724Z,89.22
2022-11-29T13:25:29.972Z,89.34
2022-11-29T13:28:14.911Z,89.47
2022-11-29T13:31:41.695Z,89.59
2022-11-29T13:34:23.719Z,89.62
2022-11-29T13:37:20.244Z,89.58
2022-11-29T13:40:19.589Z,89.69
2022-11-29T13:43:13.894Z,89.85
2022-11-29T13:46:01.459Z,89.84
2022-11-29T13:48:54.278Z,89.85
2022-11-29T13:51:38.059Z,89.85
2022-11-29T13:54:35.845Z,89.94
2022-11-29T13:57:13.097Z,89.89
2022-11-29T13:59:53.073Z,89.93
2022-11-29T14:02:34.531Z,89.94
2022-11-29T14:05:27.777Z,90.07
2022-11-29T14:08:48.045Z,90.11
2022-11-29T14:11:33.130Z,90.22
2022-11-29T14:14:23.264Z,90.26
2022-11-29T14:17:04.745Z,90.25
2022-11-29T14:19:41.374Z,90.30
2022-11-29T14:22:35.889Z,90.26
2022-11-29T14:28:39.923Z,90.08
2022-11-29T14:31:56.254Z,90.13
2022-11-29T14:34:49.285Z,90.20
2022-11-29T14:37:46.757Z,90.16
2022-11-29T14:40:36.141Z,90.13
2022-11-29T14:43:30.573Z,90.21
2022-11-29T14:46:31.980Z,90.35
2022-11-29T14:49:19.207Z,90.47
2022-11-29T14:52:23.644Z,90.55
2022-11-29T14:55:06.712Z,90.64
2022-11-29T14:58:23.844Z,90.68
2022-11-29T15:01:11.625Z,90.70
2022-11-29T15:03:54.778Z,90.71
2022-11-29T15:06:36.962Z,90.75
2022-11-29T15:09:23.946Z,90.68
2022-11-29T15:12:09.866Z,90.80
2022-11-29T15:15:02.721Z,90.80
2022-11-29T15:17:59.089Z,90.80
2022-11-29T15:21:02.306Z,90.81
2022-11-29T15:23:45.601Z,90.83
2022-11-29T15:26:23.833Z,90.82
2022-11-29T15:29:17.967Z,90.81
2022-11-29T15:31:58.596Z,90.86
2022-11-29T15:34:45.239Z,90.96
2022-11-29T15:37:44.640Z,91.00
2022-11-29T15:40:26.303Z,91.03
2022-11-29T15:43:21.628Z,91.03
2022-11-29T15:46:00.046Z,91.00
2022-11-29T15:48:37.189Z,91.05
2022-11-29T15:51:26.464Z,91.03
2022-11-29T15:54:13.818Z,91.02
2022-11-29T15:56:56.165Z,91.06
2022-11-29T15:59:44.935Z,91.18
2022-11-29T16:02:29.297Z,91.21
2022-11-29T16:05:16.665Z,91.25
2022-11-29T16:07:59.596Z,91.28
2022-11-29T16:10:47.457Z,91.29
2022-11-29T16:13:39.546Z,91.23
2022-11-29T16:16:24.166Z,91.39
2022-11-29T16:19:22.683Z,91.38
2022-11-29T16:22:24.445Z,91.40
2022-11-29T16:25:19.075Z,91.38
2022-11-29T16:27:59.127Z,91.33
2022-11-29T16:30:35.664Z,91.31
2022-11-29T16:33:24.165Z,91.31
2022-11-29T16:36:17.188Z,91.23
2022-11-29T16:38:57.488Z,91.22
2022-11-29T16:41:40.068Z,91.14
2022-11-29T16:45:03.776Z,91.03
2022-11-29T16:47:58.812Z,91.07
2022-11-29T16:50:35.785Z,91.10
2022-11-29T16:53:42.350Z,91.13
2022-11-29T16:56:22.375Z,91.10
2022-11-29T16:59:20.590Z,91.10
2022-11-29T17:02:01.328Z,91.01
2022-11-29T17:04:37.490Z,90.98
2022-11-29T17:07:24.749Z,90.98
2022-11-29T17:10:01.793Z,90.94
2022-11-29T17:12:42.214Z,90.81
2022-11-29T17:15:22.551Z,90.83
2022-11-29T17:18:00.298Z,90.85
2022-11-29T17:20:37.013Z,90.92
2022-11-29T17:23:13.026Z,90.91
2022-11-29T17:25:59.152Z,90.94
2022-11-29T17:28:35.275Z,90.94
2022-11-29T17:31:17.978Z,91.01
2022-11-29T17:33:54.435Z,91.08
2022-11-29T17:36:32.666Z,91.15
2022-11-29T17:39:09.462Z,91.21
2022-11-29T17:41:45.602Z,91.21
2022-11-29T17:44:21.392Z,91.22
2022-11-29T17:46:57.511Z,91.29
2022-11-29T17:49:33.460Z,91.35
2022-11-29T17:52:10.355Z,91.39
2022-11-29T17:54:46.355Z,91.38
2022-11-29T17:57:22.530Z,91.39
2022-11-29T17:59:59.258Z,91.40
2022-11-29T18:02:35.422Z,91.43
2022-11-29T18:05:13.564Z,91.48
2022-11-29T18:08:09.223Z,91.55
2022-11-29T18:10:45.248Z,91.54
2022-11-29T18:13:21.535Z,91.55
2022-11-29T18:16:02.301Z,91.51
2022-11-29T18:18:38.825Z,91.54
2022-11-29T18:21:16.152Z,91.58
2022-11-29T18:23:52.632Z,91.55
2022-11-29T18:26:31.076Z,91.60
2022-11-29T18:29:09.030Z,91.57
2022-11-29T18:31:47.462Z,91.61
2022-11-29T18:34:23.406Z,91.64
2022-11-29T18:36:59.486Z,91.69
2022-11-29T18:39:35.351Z,91.73
2022-11-29T18:42:13.049Z,91.79
2022-11-29T18:44:49.091Z,91.71
2022-11-29T18:47:25.106Z,91.74
2022-11-29T18:50:01.102Z,91.73
2022-11-29T18:52:40.654Z,91.79
2022-11-29T18:55:17.013Z,91.80
2022-11-29T18:57:55.417Z,91.79
2022-11-29T19:00:31.754Z,91.78
2022-11-29T19:03:07.902Z,91.80
2022-11-29T19:05:54.335Z,91.80
2022-11-29T19:08:30.827Z,91.79
2022-11-29T19:11:11.856Z,91.77
2022-11-29T19:13:49.460Z,91.73
2022-11-29T19:16:27.675Z,91.70
2022-11-29T19:19:05.129Z,91.70
2022-11-29T19:21:41.774Z,91.71
2022-11-29T19:24:20.637Z,91.69
2022-11-29T19:26:57.367Z,91.69
2022-11-29T19:29:39.374Z,91.70
2022-11-29T19:32:16.088Z,91.70
2022-11-29T19:34:52.892Z,91.72
2022-11-29T19:37:29.153Z,91.75
2022-11-29T19:40:05.833Z,91.71
2022-11-29T19:42:42.319Z,91.70
2022-11-29T19:45:18.741Z,91.70
2022-11-29T19:47:56.662Z,91.61
2022-11-29T19:50:32.720Z,91.62
2022-11-29T19:53:10.417Z,91.51
2022-11-29T19:55:46.765Z,91.54
2022-11-29T19:58:22.948Z,91.50
2022-11-29T20:01:04.429Z,91.51
2022-11-29T20:03:39.567Z,91.44
2022-11-29T20:06:17.132Z,91.40
2022-11-29T20:08:53.511Z,91.40
2022-11-29T20:11:30.512Z,91.32
2022-11-29T20:14:08.928Z,91.30
2022-11-29T20:16:46.209Z,91.26
2022-11-29T20:19:22.696Z,91.21
2022-11-29T20:21:58.940Z,91.20
2022-11-29T20:24:40.084Z,91.26
2022-11-29T20:27:20.164Z,91.16
2022-11-29T20:29:56.325Z,91.11
2022-11-29T20:32:32.979Z,91.09
2022-11-29T20:35:12.522Z,91.05
2022-11-29T20:38:19.414Z,91.04
2022-11-29T20:41:06.234Z,91.01
2022-11-29T20:43:54.022Z,91.00
2022-11-29T20:46:31.811Z,90.99
2022-11-29T20:49:10.602Z,90.92
2022-11-29T20:51:56.904Z,90.90
2022-11-29T20:54:33.265Z,90.81
2022-11-29T20:57:09.674Z,90.72
2022-11-29T20:59:46.131Z,90.66
2022-11-29T21:02:22.707Z,90.62
2022-11-29T21:04:58.774Z,90.63
2022-11-29T21:07:35.517Z,90.64
2022-11-29T21:10:14.997Z,90.58
2022-11-29T21:12:53.644Z,90.59
2022-11-29T21:15:34.368Z,90.55
2022-11-29T21:18:21.657Z,90.52
2022-11-29T21:21:16.265Z,90.51
2022-11-29T21:24:12.547Z,90.51
2022-11-29T21:26:53.576Z,90.54
2022-11-29T21:29:31.104Z,90.50
2022-11-29T21:32:17.875Z,90.57
2022-11-29T21:34:55.552Z,90.59
2022-11-29T21:37:34.935Z,90.51
2022-11-29T21:40:16.444Z,90.57
2022-11-29T21:42:52.428Z,90.55
2022-11-29T21:45:28.592Z,90.48
2022-11-29T21:48:27.610Z,90.45
2022-11-29T21:51:03.882Z,90.48
2022-11-29T21:53:41.705Z,90.50
2022-11-29T21:56:18.511Z,90.46
2022-11-29T21:58:54.779Z,90.39
2022-11-29T22:01:30.952Z,90.31
2022-11-29T22:04:07.321Z,90.33
2022-11-29T22:06:43.359Z,90.37
2022-11-29T22:09:19.189Z,90.28
2022-11-29T22:11:55.787Z,90.20
2022-11-29T22:14:32.089Z,90.20
2022-11-29T22:17:08.106Z,90.27
2022-11-29T22:19:44.064Z,90.25
2022-11-29T22:22:19.919Z,90.16
2022-11-29T22:24:55.874Z,90.18
2022-11-29T22:27:31.942Z,90.13
2022-11-29T22:30:10.360Z,90.20
2022-11-29T22:32:46.307Z,90.19
2022-11-29T22:35:22.364Z,90.25
2022-11-29T22:37:58.322Z,90.18
2022-11-29T22:40:34.380Z,90.20
2022-11-29T22:43:10.249Z,90.23
2022-11-29T22:45:46.190Z,90.16
2022-11-29T22:48:22.453Z,90.12
2022-11-29T22:51:08.088Z,90.09
2022-11-29T22:53:49.217Z,90.15
2022-11-29T22:56:27.551Z,90.22
2022-11-29T22:59:04.681Z,90.25
2022-11-29T23:01:43.452Z,90.30
2022-11-29T23:04:19.786Z,90.30
2022-11-29T23:06:55.746Z,90.31
2022-11-29T23:09:31.702Z,90.30
2022-11-29T23:12:08.801Z,90.26
2022-11-29T23:14:44.982Z,90.20
2022-11-29T23:17:21.074Z,90.20
2022-11-29T23:19:57.311Z,90.20
2022-11-29T23:22:33.303Z,90.20
2022-11-29T23:25:10.616Z,90.21
2022-11-29T23:27:46.572Z,90.27
2022-11-29T23:30:22.837Z,90.20
2022-11-29T23:32:58.691Z,90.30
2022-11-29T23:35:34.749Z,90.30
2022-11-29T23:38:10.716Z,90.30
2022-11-29T23:40:51.778Z,90.11
2022-11-29T23:43:31.546Z,90.01
2022-11-29T23:46:14.705Z,90.10
2022-11-29T23:48:51.198Z,90.07
2022-11-29T23:51:27.590Z,90.10
2022-11-29T23:54:03.533Z,90.19
2022-11-29T23:56:40.923Z,90.25
2022-11-29T23:59:16.738Z,90.29
